createdAt,value
2023-03-04T00:01:16.431Z,86.72
2023-03-04T00:03:42.981Z,86.69
2023-03-04T00:06:09.647Z,87.00
2023-03-04T00:08:36.265Z,86.96
2023-03-04T00:11:02.787Z,86.99
2023-03-04T00:13:29.344Z,87.06
2023-03-04T00:15:56.022Z,87.01
2023-03-04T00:18:22.692Z,87.16
2023-03-04T00:20:50.680Z,87.09
2023-03-04T00:23:17.553Z,87.28
2023-03-04T00:25:44.122Z,87.25
2023-03-04T00:28:10.929Z,87.22
2023-03-04T00:30:37.482Z,87.75
2023-03-04T00:33:04.180Z,87.30
2023-03-04T00:35:30.745Z,87.31
2023-03-04T00:37:57.406Z,87.26
2023-03-04T00:40:24.000Z,87.05
2023-03-04T00:42:50.717Z,86.95
2023-03-04T00:45:17.289Z,87.15
2023-03-04T00:47:45.122Z,86.91
2023-03-04T00:50:12.140Z,86.66
2023-03-04T00:52:38.691Z,86.68
2023-03-04T00:55:05.959Z,86.15
2023-03-04T00:57:32.481Z,86.07
2023-03-04T00:59:58.991Z,86.42
2023-03-04T01:02:25.796Z,86.55
2023-03-04T01:04:52.622Z,86.08
2023-03-04T01:07:19.245Z,85.94
2023-03-04T01:09:45.771Z,85.47
2023-03-04T01:12:12.316Z,85.92
2023-03-04T01:14:38.867Z,85.59
2023-03-04T01:17:05.402Z,85.82
2023-03-04T01:19:31.994Z,85.23
2023-03-04T01:21:58.555Z,85.21
2023-03-04T01:24:25.056Z,85.52
2023-03-04T01:26:51.579Z,85.06
2023-03-04T01:29:18.278Z,84.80
2023-03-04T01:31:44.854Z,84.87
2023-03-04T01:34:11.459Z,84.70
2023-03-04T01:36:38.043Z,84.26
2023-03-04T01:39:05.110Z,84.42
2023-03-04T01:41:31.931Z,84.13
2023-03-04T01:44:03.401Z,84.28
2023-03-04T01:46:31.161Z,84.27
2023-03-04T01:48:57.965Z,83.99
2023-03-04T01:51:24.621Z,83.93
2023-03-04T01:53:53.475Z,83.44
2023-03-04T01:56:30.710Z,83.62
2023-03-04T01:59:17.477Z,83.72
2023-03-04T02:01:46.829Z,83.13
2023-03-04T02:04:14.438Z,83.45
2023-03-04T02:06:41.855Z,83.20
2023-03-04T02:09:08.947Z,83.02
2023-03-04T02:11:36.337Z,83.06
2023-03-04T02:14:03.158Z,82.92
2023-03-04T02:16:29.758Z,82.50
2023-03-04T02:18:56.288Z,82.67
2023-03-04T02:21:29.238Z,82.49
2023-03-04T02:24:03.154Z,82.20
2023-03-04T02:26:31.347Z,82.18
2023-03-04T02:28:59.462Z,82.08
2023-03-04T02:31:55.589Z,82.01
2023-03-04T02:34:26.070Z,82.43
2023-03-04T02:36:53.585Z,82.75
2023-03-04T02:39:20.025Z,82.52
2023-03-04T02:41:51.810Z,82.46
2023-03-04T02:44:24.107Z,82.58
2023-03-04T02:46:51.784Z,82.47
2023-03-04T02:49:18.584Z,82.50
2023-03-04T02:51:45.397Z,83.47
2023-03-04T02:54:16.823Z,83.69
2023-03-04T02:56:51.350Z,83.44
2023-03-04T02:59:18.620Z,83.32
2023-03-04T03:01:45.679Z,82.79
2023-03-04T03:04:12.981Z,83.47
2023-03-04T03:06:40.152Z,83.10
2023-03-04T03:09:07.524Z,83.10
2023-03-04T03:11:34.429Z,83.29
2023-03-04T03:14:00.974Z,82.97
2023-03-04T03:16:27.889Z,83.13
2023-03-04T03:18:54.489Z,82.84
2023-03-04T03:21:21.133Z,83.03
2023-03-04T03:23:47.701Z,83.47
2023-03-04T03:26:14.507Z,83.06
2023-03-04T03:28:41.034Z,83.09
2023-03-04T03:31:07.855Z,83.41
2023-03-04T03:33:34.597Z,82.99
2023-03-04T03:36:01.418Z,83.24
2023-03-04T03:38:28.262Z,83.62
2023-03-04T03:40:54.801Z,83.20
2023-03-04T03:43:21.323Z,83.04
2023-03-04T03:45:47.908Z,83.79
2023-03-04T03:48:14.403Z,83.55
2023-03-04T03:50:40.912Z,83.33
2023-03-04T03:53:07.472Z,83.56
2023-03-04T03:55:33.957Z,83.73
2023-03-04T03:58:00.559Z,83.46
2023-03-04T04:00:27.174Z,83.88
2023-03-04T04:02:55.239Z,83.80
2023-03-04T04:05:21.777Z,84.26
2023-03-04T04:07:48.323Z,83.98
2023-03-04T04:10:14.807Z,83.53
2023-03-04T04:12:41.385Z,83.93
2023-03-04T04:15:10.200Z,83.81
2023-03-04T04:17:36.734Z,83.99
2023-03-04T04:20:03.615Z,83.59
2023-03-04T04:22:30.071Z,83.81
2023-03-04T04:24:56.564Z,84.01
2023-03-04T04:27:23.189Z,84.16
2023-03-04T04:29:49.772Z,84.10
2023-03-04T04:32:16.364Z,84.11
2023-03-04T04:34:42.949Z,83.90
2023-03-04T04:37:09.522Z,83.97
2023-03-04T04:39:37.095Z,83.92
2023-03-04T04:42:03.794Z,84.14
2023-03-04T04:44:30.363Z,84.00
2023-03-04T04:46:56.982Z,84.44
2023-03-04T04:49:23.550Z,84.32
2023-03-04T04:51:50.174Z,84.13
2023-03-04T04:54:17.462Z,84.65
2023-03-04T04:56:44.053Z,84.83
2023-03-04T04:59:10.693Z,84.68
2023-03-04T05:01:37.233Z,84.65
2023-03-04T05:04:04.058Z,85.04
2023-03-04T05:06:30.642Z,84.44
2023-03-04T05:08:57.200Z,84.91
2023-03-04T05:11:23.801Z,84.90
2023-03-04T05:13:50.508Z,85.12
2023-03-04T05:16:17.904Z,85.04
2023-03-04T05:18:44.531Z,85.15
2023-03-04T05:21:11.193Z,85.47
2023-03-04T05:23:39.850Z,85.91
2023-03-04T05:26:08.118Z,85.95
2023-03-04T05:28:35.019Z,85.76
2023-03-04T05:31:02.013Z,86.16
2023-03-04T05:33:28.924Z,86.28
2023-03-04T05:35:56.456Z,86.32
2023-03-04T05:38:23.411Z,86.76
2023-03-04T05:40:50.417Z,86.56
2023-03-04T05:43:17.390Z,87.24
2023-03-04T05:45:43.938Z,87.53
2023-03-04T05:48:10.554Z,87.36
2023-03-04T05:50:37.312Z,87.69
2023-03-04T05:53:03.963Z,88.16
2023-03-04T05:55:30.553Z,88.21
2023-03-04T05:57:57.670Z,87.96
2023-03-04T06:00:25.135Z,88.28
2023-03-04T06:02:52.080Z,88.38
2023-03-04T06:05:19.583Z,88.35
2023-03-04T06:07:49.321Z,88.62
2023-03-04T06:10:17.492Z,88.92
2023-03-04T06:12:43.982Z,89.22
2023-03-04T06:15:11.214Z,89.09
2023-03-04T06:17:41.804Z,89.20
2023-03-04T06:20:10.880Z,89.06
2023-03-04T06:22:37.394Z,89.51
2023-03-04T06:25:04.715Z,89.56
2023-03-04T06:27:31.270Z,90.11
2023-03-04T06:29:58.005Z,90.22
2023-03-04T06:32:24.670Z,90.58
2023-03-04T06:34:51.287Z,90.54
2023-03-04T06:37:17.832Z,90.47
2023-03-04T06:39:45.885Z,91.17
2023-03-04T06:42:12.794Z,91.29
2023-03-04T06:44:39.421Z,91.40
2023-03-04T06:47:06.060Z,91.39
2023-03-04T06:49:32.651Z,91.52
2023-03-04T06:51:59.291Z,91.45
2023-03-04T06:54:25.944Z,92.06
2023-03-04T06:56:52.504Z,91.84
2023-03-04T06:59:19.175Z,91.71
2023-03-04T07:01:45.728Z,92.07
2023-03-04T07:04:13.850Z,92.27
2023-03-04T07:06:42.719Z,92.36
2023-03-04T07:09:10.269Z,92.45
2023-03-04T07:11:37.002Z,92.97
2023-03-04T07:14:03.525Z,92.08
2023-03-04T07:16:30.684Z,92.22
2023-03-04T07:18:57.347Z,91.82
2023-03-04T07:21:23.920Z,91.72
2023-03-04T07:23:50.785Z,91.88
2023-03-04T07:26:17.981Z,91.97
2023-03-04T07:28:44.644Z,91.52
2023-03-04T07:31:22.568Z,91.63
2023-03-04T07:33:49.770Z,91.13
2023-03-04T07:36:16.468Z,90.68
2023-03-04T07:38:45.018Z,90.95
2023-03-04T07:41:11.592Z,90.88
2023-03-04T07:43:38.395Z,91.64
2023-03-04T07:46:05.171Z,91.24
2023-03-04T07:48:31.707Z,91.38
2023-03-04T07:51:08.852Z,91.01
2023-03-04T07:53:37.266Z,90.69
2023-03-04T07:56:04.819Z,90.38
2023-03-04T07:58:31.692Z,90.37
2023-03-04T08:00:58.263Z,90.46
2023-03-04T08:03:24.930Z,89.71
2023-03-04T08:05:52.015Z,90.61
2023-03-04T08:08:18.623Z,89.87
2023-03-04T08:10:45.377Z,89.09
2023-03-04T08:13:11.980Z,88.89
2023-03-04T08:15:43.145Z,88.93
2023-03-04T08:18:09.976Z,88.65
2023-03-04T08:20:36.606Z,89.51
2023-03-04T08:23:03.167Z,89.33
2023-03-04T08:25:29.734Z,89.13
2023-03-04T08:27:56.389Z,89.32
2023-03-04T08:30:23.029Z,89.17
2023-03-04T08:32:49.634Z,88.69
2023-03-04T08:35:16.261Z,88.63
2023-03-04T08:37:46.408Z,88.65
2023-03-04T08:40:14.346Z,89.02
2023-03-04T08:42:41.856Z,89.39
2023-03-04T08:45:09.700Z,89.84
2023-03-04T08:47:36.460Z,90.32
2023-03-04T08:50:03.912Z,90.05
2023-03-04T08:52:30.976Z,90.58
2023-03-04T08:54:57.643Z,90.75
2023-03-04T08:57:24.195Z,90.86
2023-03-04T08:59:50.756Z,90.97
2023-03-04T09:02:17.473Z,91.35
2023-03-04T09:04:44.039Z,91.39
2023-03-04T09:07:11.270Z,91.33
2023-03-04T09:09:37.895Z,91.18
2023-03-04T09:12:04.567Z,90.83
2023-03-04T09:14:32.720Z,90.51
2023-03-04T09:16:59.363Z,90.32
2023-03-04T09:19:27.837Z,89.89
2023-03-04T09:21:56.046Z,89.03
2023-03-04T09:24:22.672Z,89.24
2023-03-04T09:26:54.312Z,88.72
2023-03-04T09:29:21.164Z,88.71
2023-03-04T09:31:47.819Z,87.91
2023-03-04T09:34:14.600Z,86.71
2023-03-04T09:36:41.191Z,86.14
2023-03-04T09:39:07.947Z,86.67
2023-03-04T09:41:39.542Z,86.68
2023-03-04T09:44:37.322Z,87.20
2023-03-04T09:47:07.871Z,87.12
2023-03-04T09:49:34.624Z,87.53
2023-03-04T09:52:20.802Z,88.12
2023-03-04T09:55:12.307Z,88.21
2023-03-04T09:57:50.987Z,88.55
2023-03-04T10:00:20.272Z,87.32
2023-03-04T10:03:09.989Z,85.91
2023-03-04T10:05:49.716Z,85.35
2023-03-04T10:08:41.220Z,84.83
2023-03-04T10:11:27.855Z,84.51
2023-03-04T10:14:12.520Z,84.18
2023-03-04T10:16:44.159Z,83.99
2023-03-04T10:19:13.726Z,84.25
2023-03-04T10:21:43.262Z,84.52
2023-03-04T10:24:17.999Z,85.34
2023-03-04T10:26:46.617Z,87.85
2023-03-04T10:29:18.467Z,87.55
2023-03-04T10:31:46.425Z,88.30
2023-03-04T10:34:14.156Z,86.13
2023-03-04T10:37:01.931Z,85.88
2023-03-04T10:39:33.637Z,84.88
2023-03-04T10:42:00.241Z,84.81
2023-03-04T10:44:27.999Z,84.34
2023-03-04T10:46:56.475Z,83.58
2023-03-04T10:49:25.141Z,83.62
2023-03-04T10:52:06.343Z,83.62
2023-03-04T10:54:50.435Z,82.63
2023-03-04T10:57:23.634Z,80.86
2023-03-04T10:59:55.676Z,79.66
2023-03-04T11:02:33.662Z,78.50
2023-03-04T11:05:13.820Z,75.63
2023-03-04T11:07:57.113Z,71.79
2023-03-04T11:10:23.999Z,71.76
2023-03-04T11:13:07.370Z,69.81
2023-03-04T11:15:49.476Z,67.50
2023-03-04T11:18:16.255Z,67.90
2023-03-04T11:20:49.416Z,67.58
2023-03-04T11:23:25.472Z,67.22
2023-03-04T11:26:10.575Z,67.75
2023-03-04T11:28:48.642Z,67.27
2023-03-04T11:31:22.876Z,66.38
2023-03-04T11:33:52.356Z,66.61
2023-03-04T11:36:43.854Z,66.73
2023-03-04T11:39:27.061Z,67.16
2023-03-04T11:41:59.398Z,67.85
2023-03-04T11:44:26.139Z,68.04
2023-03-04T11:47:05.444Z,68.50
2023-03-04T11:49:48.853Z,68.89
2023-03-04T11:52:18.636Z,69.49
2023-03-04T11:55:05.149Z,69.68
2023-03-04T11:57:49.320Z,70.18
2023-03-04T12:00:30.590Z,70.27
2023-03-04T12:03:12.927Z,69.90
2023-03-04T12:05:55.574Z,70.12
2023-03-04T12:08:38.778Z,69.71
2023-03-04T12:11:14.885Z,68.67
2023-03-04T12:14:04.638Z,65.06
2023-03-04T12:16:34.225Z,63.73
2023-03-04T12:19:17.283Z,64.15
2023-03-04T12:22:06.557Z,64.43
2023-03-04T12:24:49.450Z,65.54
2023-03-04T12:27:37.255Z,66.01
2023-03-04T12:30:28.591Z,66.15
2023-03-04T12:33:19.249Z,66.37
2023-03-04T12:36:07.249Z,66.32
2023-03-04T12:38:50.146Z,65.30
2023-03-04T12:41:28.877Z,65.58
2023-03-04T12:44:09.223Z,65.29
2023-03-04T12:46:59.468Z,65.67
2023-03-04T12:49:49.270Z,65.27
2023-03-04T12:55:44.578Z,63.51
2023-03-04T12:58:16.092Z,62.66
2023-03-04T13:01:07.354Z,62.67
2023-03-04T13:03:39.215Z,63.08
2023-03-04T13:06:19.493Z,62.83
2023-03-04T13:09:04.685Z,63.48
2023-03-04T13:11:42.771Z,63.21
2023-03-04T13:14:17.423Z,63.64
2023-03-04T13:16:48.039Z,63.77
2023-03-04T13:19:42.280Z,64.17
2023-03-04T13:22:53.855Z,64.31
2023-03-04T13:25:32.659Z,64.96
2023-03-04T13:28:11.441Z,65.03
2023-03-04T13:30:41.045Z,64.14
2023-03-04T13:33:10.484Z,63.74
2023-03-04T13:35:49.254Z,62.39
2023-03-04T13:38:37.410Z,62.24
2023-03-04T13:41:23.022Z,61.93
2023-03-04T13:43:52.120Z,61.22
2023-03-04T13:46:18.765Z,60.33
2023-03-04T13:48:51.576Z,59.12
2023-03-04T13:51:29.964Z,58.77
2023-03-04T13:53:59.731Z,57.83
2023-03-04T13:56:37.905Z,58.33
2023-03-04T13:59:43.439Z,58.95
2023-03-04T14:02:22.276Z,59.22
2023-03-04T14:04:54.965Z,60.65
2023-03-04T14:07:26.577Z,60.82
2023-03-04T14:09:57.276Z,61.14
2023-03-04T14:12:24.427Z,61.11
2023-03-04T14:14:54.491Z,61.71
2023-03-04T14:17:27.419Z,62.46
2023-03-04T14:19:54.813Z,62.40
2023-03-04T14:22:40.897Z,62.05
2023-03-04T14:25:16.291Z,62.12
2023-03-04T14:27:44.456Z,62.36
2023-03-04T14:30:40.696Z,61.91
2023-03-04T14:33:21.685Z,61.45
2023-03-04T14:35:52.329Z,61.46
2023-03-04T14:38:28.220Z,61.68
2023-03-04T14:41:07.910Z,61.83
2023-03-04T14:43:57.189Z,61.85
2023-03-04T14:46:25.073Z,61.65
2023-03-04T14:48:53.516Z,60.70
2023-03-04T14:51:39.145Z,59.54
2023-03-04T14:54:06.824Z,59.88
2023-03-04T14:56:37.191Z,59.24
2023-03-04T14:59:03.976Z,58.80
2023-03-04T15:01:35.944Z,58.18
2023-03-04T15:04:08.332Z,58.39
2023-03-04T15:06:47.763Z,58.44
2023-03-04T15:09:22.009Z,58.07
2023-03-04T15:11:53.793Z,57.57
2023-03-04T15:14:42.679Z,57.91
2023-03-04T15:17:26.057Z,58.16
2023-03-04T15:20:07.887Z,58.64
2023-03-04T15:22:57.710Z,59.22
2023-03-04T15:25:24.432Z,59.42
2023-03-04T15:27:51.469Z,59.34
2023-03-04T15:30:25.963Z,59.75
2023-03-04T15:32:52.452Z,60.17
2023-03-04T15:35:19.754Z,60.03
2023-03-04T15:37:47.519Z,60.27
2023-03-04T15:40:23.659Z,60.97
2023-03-04T15:42:50.458Z,61.29
2023-03-04T15:45:26.773Z,61.38
2023-03-04T15:47:53.458Z,61.63
2023-03-04T15:50:21.798Z,62.04
2023-03-04T15:52:50.879Z,62.15
2023-03-04T15:55:20.045Z,62.16
2023-03-04T15:57:48.965Z,62.59
2023-03-04T16:00:16.117Z,62.53
2023-03-04T16:02:43.008Z,62.48
2023-03-04T16:05:10.891Z,62.21
2023-03-04T16:07:38.843Z,61.03
2023-03-04T16:10:08.688Z,60.25
2023-03-04T16:12:35.394Z,59.77
2023-03-04T16:15:02.186Z,58.77
2023-03-04T16:17:28.853Z,58.73
2023-03-04T16:19:55.508Z,58.98
2023-03-04T16:22:24.356Z,59.20
2023-03-04T16:24:51.640Z,59.05
2023-03-04T16:27:19.195Z,59.07
2023-03-04T16:29:46.030Z,59.10
2023-03-04T16:32:12.970Z,58.69
2023-03-04T16:34:39.582Z,59.65
2023-03-04T16:37:12.318Z,59.30
2023-03-04T16:39:38.998Z,58.39
2023-03-04T16:42:13.205Z,57.70
2023-03-04T16:44:39.939Z,56.90
2023-03-04T16:47:08.033Z,57.22
2023-03-04T16:49:34.855Z,56.85
2023-03-04T16:52:01.453Z,56.85
2023-03-04T16:54:31.277Z,56.55
2023-03-04T16:56:59.266Z,56.30
2023-03-04T16:59:26.294Z,56.56
2023-03-04T17:01:53.778Z,56.90
2023-03-04T17:04:20.722Z,56.52
2023-03-04T17:06:47.502Z,56.30
2023-03-04T17:09:14.391Z,56.40
2023-03-04T17:11:41.268Z,56.75
2023-03-04T17:14:07.791Z,56.93
2023-03-04T17:16:34.460Z,57.17
2023-03-04T17:19:01.101Z,57.76
2023-03-04T17:21:28.936Z,57.67
2023-03-04T17:23:55.459Z,57.79
2023-03-04T17:26:22.836Z,57.88
2023-03-04T17:28:50.652Z,58.12
2023-03-04T17:31:19.065Z,58.34
2023-03-04T17:33:46.237Z,58.39
2023-03-04T17:36:14.618Z,58.26
2023-03-04T17:38:41.758Z,58.43
2023-03-04T17:41:13.454Z,58.35
2023-03-04T17:43:40.219Z,58.61
2023-03-04T17:46:08.895Z,58.06
2023-03-04T17:48:35.497Z,58.40
2023-03-04T17:51:02.779Z,57.82
2023-03-04T17:53:29.669Z,57.57
2023-03-04T17:56:00.144Z,56.85
2023-03-04T17:58:28.095Z,56.85
2023-03-04T18:01:04.776Z,57.01
2023-03-04T18:03:31.384Z,56.85
2023-03-04T18:05:58.582Z,56.88
2023-03-04T18:08:25.534Z,57.32
2023-03-04T18:10:52.596Z,57.07
2023-03-04T18:13:19.279Z,57.93
2023-03-04T18:15:47.977Z,58.44
2023-03-04T18:19:06.258Z,59.26
2023-03-04T18:21:42.976Z,59.93
2023-03-04T18:28:20.835Z,62.17
2023-03-04T18:35:07.320Z,63.60
2023-03-04T18:37:56.930Z,64.11
2023-03-04T18:44:10.658Z,64.08
2023-03-04T18:46:48.227Z,63.99
2023-03-04T18:49:15.188Z,64.09
2023-03-04T18:51:42.022Z,64.36
2023-03-04T18:54:08.461Z,64.25
2023-03-04T18:56:38.986Z,64.27
2023-03-04T18:59:08.253Z,64.01
2023-03-04T19:01:34.796Z,64.08
2023-03-04T19:04:04.422Z,64.43
2023-03-04T19:06:34.491Z,63.96
2023-03-04T19:09:01.298Z,63.41
2023-03-04T19:11:29.814Z,63.22
2023-03-04T19:13:56.258Z,63.54
2023-03-04T19:16:22.906Z,63.76
2023-03-04T19:18:49.384Z,63.59
2023-03-04T19:21:15.833Z,63.58
2023-03-04T19:23:42.379Z,63.71
2023-03-04T19:26:09.130Z,63.42
2023-03-04T19:28:35.702Z,63.50
2023-03-04T19:31:07.052Z,62.78
2023-03-04T19:33:37.229Z,62.51
2023-03-04T19:36:05.645Z,62.88
2023-03-04T19:38:33.497Z,62.46
2023-03-04T19:41:00.130Z,62.69
2023-03-04T19:43:26.549Z,62.75
2023-03-04T19:45:55.057Z,62.61
2023-03-04T19:48:22.676Z,63.19
2023-03-04T19:50:50.008Z,63.10
2023-03-04T19:53:18.631Z,62.70
2023-03-04T19:55:49.252Z,61.64
2023-03-04T19:58:16.466Z,61.61
2023-03-04T20:00:42.976Z,60.60
2023-03-04T20:03:09.511Z,59.91
2023-03-04T20:05:36.089Z,58.36
2023-03-04T20:08:02.686Z,58.01
2023-03-04T20:10:33.502Z,57.97
2023-03-04T20:12:59.974Z,57.59
2023-03-04T20:15:26.436Z,57.86
2023-03-04T20:17:52.886Z,57.58
2023-03-04T20:20:19.372Z,58.26
2023-03-04T20:22:45.885Z,58.40
2023-03-04T20:25:13.811Z,58.04
2023-03-04T20:27:40.255Z,57.93
2023-03-04T20:30:07.248Z,58.37
2023-03-04T20:32:33.735Z,58.10
2023-03-04T20:35:00.185Z,58.31
2023-03-04T20:37:26.609Z,58.71
2023-03-04T20:39:53.104Z,58.66
2023-03-04T20:42:19.560Z,58.30
2023-03-04T20:44:46.030Z,58.30
2023-03-04T20:47:12.465Z,57.80
2023-03-04T20:49:38.892Z,57.87
2023-03-04T20:52:09.595Z,57.09
2023-03-04T20:54:37.396Z,57.11
2023-03-04T20:57:06.801Z,57.01
2023-03-04T20:59:37.966Z,56.87
2023-03-04T21:02:05.980Z,56.33
2023-03-04T21:04:34.311Z,56.14
2023-03-04T21:07:01.665Z,56.50
2023-03-04T21:09:28.143Z,56.02
2023-03-04T21:11:54.847Z,56.51
2023-03-04T21:14:24.274Z,56.42
2023-03-04T21:16:53.352Z,56.49
2023-03-04T21:19:22.642Z,56.38
2023-03-04T21:21:50.867Z,56.74
2023-03-04T21:24:19.871Z,56.94
2023-03-04T21:26:47.651Z,56.73
2023-03-04T21:29:16.216Z,56.86
2023-03-04T21:31:45.333Z,56.86
2023-03-04T21:34:18.249Z,56.40
2023-03-04T21:36:44.870Z,57.11
2023-03-04T21:39:16.668Z,56.54
2023-03-04T21:41:43.392Z,56.99
2023-03-04T21:44:17.977Z,56.48
2023-03-04T21:46:59.083Z,56.76
2023-03-04T21:49:26.248Z,56.65
2023-03-04T21:51:52.672Z,56.67
2023-03-04T21:54:19.144Z,56.48
2023-03-04T21:56:45.630Z,56.96
2023-03-04T21:59:13.717Z,56.70
2023-03-04T22:01:40.828Z,56.80
2023-03-04T22:04:07.364Z,56.72
2023-03-04T22:06:34.398Z,57.13
2023-03-04T22:09:02.133Z,56.61
2023-03-04T22:11:29.974Z,56.22
2023-03-04T22:13:58.209Z,56.50
2023-03-04T22:16:25.255Z,55.98
2023-03-04T22:18:51.761Z,56.47
2023-03-04T22:21:19.500Z,56.54
2023-03-04T22:23:46.121Z,56.06
2023-03-04T22:26:18.502Z,55.74
2023-03-04T22:28:44.948Z,55.99
2023-03-04T22:31:30.070Z,56.25
2023-03-04T22:34:01.474Z,56.30
2023-03-04T22:36:32.699Z,55.75
2023-03-04T22:38:59.140Z,55.96
2023-03-04T22:41:25.770Z,56.05
2023-03-04T22:43:52.402Z,56.67
2023-03-04T22:46:24.654Z,56.36
2023-03-04T22:48:52.794Z,56.13
2023-03-04T22:51:20.670Z,56.38
2023-03-04T22:53:48.349Z,56.70
2023-03-04T22:56:15.569Z,56.62
2023-03-04T22:58:42.918Z,56.75
2023-03-04T23:01:10.207Z,56.56
2023-03-04T23:03:37.035Z,56.63
2023-03-04T23:06:14.094Z,56.75
2023-03-04T23:08:41.900Z,56.46
2023-03-04T23:11:10.284Z,56.23
2023-03-04T23:13:37.741Z,55.98
2023-03-04T23:16:07.898Z,55.30
2023-03-04T23:18:35.037Z,55.45
2023-03-04T23:21:25.718Z,55.23
2023-03-04T23:23:52.370Z,54.99
2023-03-04T23:26:27.275Z,55.16
2023-03-04T23:28:56.785Z,54.46
2023-03-04T23:31:23.552Z,54.60
2023-03-04T23:33:50.130Z,54.64
2023-03-04T23:36:18.265Z,54.08
2023-03-04T23:38:46.676Z,54.15
2023-03-04T23:41:15.578Z,54.70
2023-03-04T23:43:42.041Z,54.46
2023-03-04T23:46:09.317Z,54.89
2023-03-04T23:48:35.824Z,54.26
2023-03-04T23:51:02.234Z,54.35
2023-03-04T23:53:28.718Z,54.07
2023-03-04T23:55:55.124Z,54.43
2023-03-04T23:58:21.536Z,54.67
